createdAt,value
2023-03-19T00:00:00.707Z,77.04
2023-03-19T00:05:03.836Z,76.66
2023-03-19T00:10:05.670Z,77.23
2023-03-19T00:15:09.040Z,76.39
2023-03-19T00:20:12.402Z,76.84
2023-03-19T00:25:14.708Z,77.38
2023-03-19T00:30:16.243Z,77.15
2023-03-19T00:35:17.756Z,77.11
2023-03-19T00:40:19.642Z,76.58
2023-03-19T00:45:21.569Z,77.17
2023-03-19T00:50:25.537Z,76.80
2023-03-19T00:55:27.336Z,76.89
2023-03-19T01:00:29.106Z,77.09
2023-03-19T01:05:31.547Z,77.36
2023-03-19T01:10:34.809Z,77.54
2023-03-19T01:15:42.834Z,77.24
2023-03-19T01:20:44.549Z,76.74
2023-03-19T01:25:46.596Z,76.61
2023-03-19T01:30:48.682Z,77.01
2023-03-19T01:36:16.448Z,76.18
2023-03-19T01:41:38.676Z,77.37
2023-03-19T01:47:24.552Z,76.64
2023-03-19T01:52:44.420Z,76.71
2023-03-19T01:57:57.020Z,77.02
2023-03-19T02:03:25.554Z,76.58
2023-03-19T02:08:51.272Z,76.77
2023-03-19T02:13:52.909Z,76.94
2023-03-19T02:18:55.807Z,76.17
2023-03-19T02:24:12.778Z,76.20
2023-03-19T02:29:35.741Z,76.58
2023-03-19T02:34:42.248Z,76.21
2023-03-19T02:39:48.235Z,75.52
2023-03-19T02:44:49.731Z,76.05
2023-03-19T02:49:51.614Z,76.69
2023-03-19T02:54:53.060Z,76.04
2023-03-19T02:59:54.532Z,76.10
2023-03-19T03:04:56.810Z,77.17
2023-03-19T03:10:00.099Z,76.78
2023-03-19T03:15:02.023Z,77.00
2023-03-19T03:20:05.868Z,76.29
2023-03-19T03:25:07.960Z,76.72
2023-03-19T03:30:12.019Z,76.93
2023-03-19T03:35:15.750Z,77.14
2023-03-19T03:40:18.056Z,76.38
2023-03-19T03:45:19.741Z,76.90
2023-03-19T03:50:21.617Z,76.83
2023-03-19T03:55:28.112Z,76.70
2023-03-19T04:00:29.770Z,76.78
2023-03-19T04:05:32.179Z,76.49
2023-03-19T04:10:36.023Z,76.42
2023-03-19T04:15:37.664Z,76.19
2023-03-19T04:20:41.265Z,76.68
2023-03-19T04:25:42.770Z,76.53
2023-03-19T04:30:44.800Z,75.98
2023-03-19T04:35:46.856Z,77.20
2023-03-19T04:40:48.981Z,77.04
2023-03-19T04:45:51.137Z,77.33
2023-03-19T04:50:56.850Z,76.92
2023-03-19T04:55:58.568Z,76.48
2023-03-19T05:01:02.033Z,76.96
2023-03-19T05:06:24.076Z,77.48
2023-03-19T05:11:25.930Z,76.70
2023-03-19T05:16:35.579Z,76.63
2023-03-19T05:21:37.539Z,77.67
2023-03-19T05:26:39.192Z,76.80
2023-03-19T05:31:52.809Z,76.96
2023-03-19T05:36:56.864Z,77.07
2023-03-19T05:41:59.019Z,77.82
2023-03-19T05:47:03.928Z,77.33
2023-03-19T05:52:09.308Z,77.48
2023-03-19T05:57:13.272Z,77.85
2023-03-19T06:02:23.310Z,78.04
2023-03-19T06:07:32.177Z,77.71
2023-03-19T06:12:36.111Z,77.67
2023-03-19T06:18:04.085Z,77.62
2023-03-19T06:23:05.819Z,78.29
2023-03-19T06:28:07.897Z,78.16
2023-03-19T06:33:14.440Z,77.80
2023-03-19T06:38:16.237Z,78.37
2023-03-19T06:43:18.173Z,78.15
2023-03-19T06:48:19.595Z,78.24
2023-03-19T06:53:21.469Z,78.29
2023-03-19T06:58:22.943Z,78.08
2023-03-19T07:03:24.535Z,78.44
2023-03-19T07:08:29.529Z,78.39
2023-03-19T07:13:31.054Z,78.03
2023-03-19T07:18:32.578Z,78.57
2023-03-19T07:23:34.328Z,79.03
2023-03-19T07:28:36.063Z,78.74
2023-03-19T07:33:37.528Z,78.88
2023-03-19T07:38:38.993Z,79.15
2023-03-19T07:43:40.433Z,78.78
2023-03-19T07:48:41.911Z,78.97
2023-03-19T07:53:43.365Z,78.78
2023-03-19T07:58:44.796Z,78.32
2023-03-19T08:03:48.275Z,77.99
2023-03-19T08:08:49.823Z,78.35
2023-03-19T08:13:51.262Z,77.83
2023-03-19T08:18:52.805Z,77.65
2023-03-19T08:23:54.292Z,77.38
2023-03-19T08:28:55.782Z,77.41
2023-03-19T08:33:59.982Z,77.15
2023-03-19T08:39:01.458Z,76.69
2023-03-19T08:44:03.304Z,76.61
2023-03-19T08:49:04.771Z,76.72
2023-03-19T08:54:06.285Z,76.44
2023-03-19T08:59:07.812Z,76.30
2023-03-19T09:04:09.364Z,75.87
2023-03-19T09:09:11.087Z,75.26
2023-03-19T09:14:13.181Z,75.40
2023-03-19T09:19:15.041Z,75.59
2023-03-19T09:24:19.353Z,75.25
2023-03-19T09:29:20.811Z,75.52
2023-03-19T09:34:22.291Z,75.19
2023-03-19T09:39:23.766Z,75.41
2023-03-19T09:44:33.988Z,74.77
2023-03-19T09:49:43.608Z,75.04
2023-03-19T09:54:48.358Z,75.18
2023-03-19T09:59:49.873Z,75.44
2023-03-19T10:05:07.692Z,74.93
2023-03-19T10:10:44.248Z,74.38
2023-03-19T10:15:46.700Z,74.79
2023-03-19T10:21:13.557Z,73.33
2023-03-19T10:26:20.631Z,72.87
2023-03-19T10:31:35.982Z,72.75
2023-03-19T10:36:38.467Z,73.15
2023-03-19T10:41:39.903Z,73.04
2023-03-19T10:46:41.884Z,72.59
2023-03-19T10:51:46.134Z,71.80
2023-03-19T10:56:48.592Z,72.00
2023-03-19T11:01:50.029Z,74.75
2023-03-19T11:06:53.956Z,73.46
2023-03-19T11:12:05.482Z,72.36
2023-03-19T11:17:18.108Z,72.93
2023-03-19T11:22:22.967Z,75.11
2023-03-19T11:27:34.673Z,72.75
2023-03-19T11:32:55.003Z,72.18
2023-03-19T11:37:58.665Z,72.00
2023-03-19T11:43:22.024Z,70.98
2023-03-19T11:48:35.416Z,70.52
2023-03-19T11:54:07.900Z,68.94
2023-03-19T11:59:29.602Z,69.99
2023-03-19T12:05:09.457Z,68.69
2023-03-19T12:10:58.733Z,68.88
2023-03-19T12:16:21.748Z,68.46
2023-03-19T12:21:51.506Z,67.24
2023-03-19T12:26:58.964Z,67.49
2023-03-19T12:32:07.328Z,68.10
2023-03-19T12:37:22.464Z,66.44
2023-03-19T12:42:38.307Z,66.93
2023-03-19T12:47:42.678Z,66.65
2023-03-19T12:52:49.443Z,65.88
2023-03-19T12:57:54.950Z,66.04
2023-03-19T13:03:07.432Z,65.79
2023-03-19T13:08:19.062Z,69.38
2023-03-19T13:13:50.866Z,67.11
2023-03-19T13:19:06.424Z,67.02
2023-03-19T13:24:28.255Z,65.45
2023-03-19T13:29:36.702Z,66.17
2023-03-19T13:34:38.453Z,65.94
2023-03-19T13:39:42.140Z,66.40
2023-03-19T13:44:57.882Z,64.95
2023-03-19T13:50:15.626Z,64.03
2023-03-19T13:55:32.752Z,62.42
2023-03-19T14:00:44.049Z,62.26
2023-03-19T14:05:48.256Z,61.84
2023-03-19T14:10:53.127Z,61.56
2023-03-19T14:16:04.782Z,61.30
2023-03-19T14:21:13.040Z,61.74
2023-03-19T14:26:28.750Z,61.77
2023-03-19T14:31:33.312Z,62.08
2023-03-19T14:36:41.567Z,61.39
2023-03-19T14:41:47.406Z,61.66
2023-03-19T14:47:19.984Z,61.88
2023-03-19T14:52:30.629Z,61.80
2023-03-19T14:57:33.163Z,62.69
2023-03-19T15:02:49.666Z,63.10
2023-03-19T15:07:55.247Z,63.38
2023-03-19T15:13:25.978Z,64.51
2023-03-19T15:18:28.131Z,65.98
2023-03-19T15:23:30.873Z,67.17
2023-03-19T15:28:44.645Z,68.50
2023-03-19T15:33:47.171Z,68.67
2023-03-19T15:38:54.953Z,68.88
2023-03-19T15:43:56.776Z,69.80
2023-03-19T15:49:16.713Z,69.95
2023-03-19T15:54:19.479Z,71.08
2023-03-19T15:59:26.484Z,72.44
2023-03-19T16:04:30.020Z,73.28
2023-03-19T16:09:34.096Z,75.29
2023-03-19T16:14:43.357Z,76.61
2023-03-19T16:19:50.696Z,77.60
2023-03-19T16:24:53.724Z,78.67
2023-03-19T16:29:59.736Z,79.21
2023-03-19T16:35:14.144Z,79.88
2023-03-19T16:40:15.941Z,80.21
2023-03-19T16:45:17.661Z,80.94
2023-03-19T16:50:29.969Z,80.91
2023-03-19T16:55:35.530Z,81.49
2023-03-19T17:00:37.269Z,81.74
2023-03-19T17:05:38.727Z,81.87
2023-03-19T17:10:45.689Z,81.94
2023-03-19T17:15:49.164Z,82.09
2023-03-19T17:20:55.377Z,82.27
2023-03-19T17:25:57.423Z,82.92
2023-03-19T17:30:59.083Z,83.07
2023-03-19T17:36:00.565Z,83.10
2023-03-19T17:41:02.600Z,83.51
2023-03-19T17:46:04.246Z,83.67
2023-03-19T17:51:05.876Z,84.43
2023-03-19T17:56:13.600Z,85.24
2023-03-19T18:01:24.917Z,85.82
2023-03-19T18:06:32.295Z,86.36
2023-03-19T18:11:33.796Z,85.78
2023-03-19T18:16:35.735Z,85.74
2023-03-19T18:21:37.181Z,85.49
2023-03-19T18:26:38.634Z,85.93
2023-03-19T18:31:41.949Z,85.90
2023-03-19T18:36:43.545Z,85.99
2023-03-19T18:41:45.456Z,86.09
2023-03-19T18:46:46.976Z,86.37
2023-03-19T18:52:01.688Z,86.31
2023-03-19T18:57:05.636Z,86.10
2023-03-19T19:02:31.360Z,86.43
2023-03-19T19:07:32.872Z,86.97
2023-03-19T19:12:35.320Z,86.85
2023-03-19T19:17:36.969Z,86.78
2023-03-19T19:22:38.452Z,86.90
2023-03-19T19:27:40.244Z,86.81
2023-03-19T19:32:42.157Z,86.71
2023-03-19T19:37:43.683Z,86.84
2023-03-19T19:42:46.131Z,86.80
2023-03-19T19:47:48.844Z,86.87
2023-03-19T19:52:50.361Z,86.90
2023-03-19T19:57:54.402Z,86.59
2023-03-19T20:02:57.549Z,86.84
2023-03-19T20:08:01.551Z,86.57
2023-03-19T20:13:03.201Z,86.67
2023-03-19T20:18:06.513Z,86.83
2023-03-19T20:23:08.016Z,86.93
2023-03-19T20:28:19.067Z,86.73
2023-03-19T20:33:21.496Z,87.30
2023-03-19T20:38:23.092Z,87.03
2023-03-19T20:43:30.202Z,86.83
2023-03-19T20:48:33.531Z,86.79
2023-03-19T20:53:35.252Z,86.37
2023-03-19T20:58:37.034Z,86.59
2023-03-19T21:03:38.804Z,86.70
2023-03-19T21:08:46.052Z,86.88
2023-03-19T21:13:53.156Z,87.07
2023-03-19T21:18:54.904Z,86.48
2023-03-19T21:24:03.946Z,86.46
2023-03-19T21:29:11.897Z,85.91
2023-03-19T21:34:14.708Z,85.80
2023-03-19T21:39:17.027Z,86.28
2023-03-19T21:44:21.831Z,86.13
2023-03-19T21:49:23.285Z,87.18
2023-03-19T21:54:24.849Z,86.87
2023-03-19T21:59:32.130Z,87.26
2023-03-19T22:04:34.069Z,87.34
2023-03-19T22:09:35.969Z,87.34
2023-03-19T22:14:38.367Z,87.97
2023-03-19T22:19:39.792Z,87.69
2023-03-19T22:24:41.207Z,87.94
2023-03-19T22:29:44.257Z,87.94
2023-03-19T22:34:45.746Z,88.13
2023-03-19T22:39:47.471Z,87.72
2023-03-19T22:44:49.521Z,87.69
2023-03-19T22:49:51.252Z,87.76
2023-03-19T22:54:53.635Z,87.77
2023-03-19T22:59:55.272Z,87.18
2023-03-19T23:04:56.761Z,87.01
2023-03-19T23:09:58.193Z,87.25
2023-03-19T23:14:59.712Z,87.32
2023-03-19T23:20:10.690Z,87.48
2023-03-19T23:25:15.113Z,87.90
2023-03-19T23:30:23.443Z,87.89
2023-03-19T23:35:26.958Z,87.42
2023-03-19T23:40:31.935Z,87.29
2023-03-19T23:45:37.474Z,87.07
2023-03-19T23:50:39.281Z,87.57
2023-03-19T23:55:40.750Z,87.52
